CLMO2: North Canadian River

Data processed at Sat Mar 10 2018 23:24


All information presented herein is the property of the government of the United States of America and may be revised or deleted at any time without prior notice.
Dissemination of this information without the expressed written consent of the Public Affairs Office, Tulsa District U.S. Army Corps of Engineers is strictly prohibited.
These data are gathered electronically and, as presented, have not undergone any form of quality control. These data are not guaranteed to be valid or correct.
Go to home page.
Go to station list.

Upstream stations:

Downstream station:
Previous Day
Next Day
Current Day
    
SHEF ID:       CLMO2     North Canadian River near Calume
STATION TYPE:  

                STAGE  STAGE(2)  RIV-FLOW  WTR-TEMP   DIS-OXY        PH   CONDUCT  BAT-LOAD
                   ft        ft       cfs         F      mg/l        su   umho/cm      volt
              Ccp-Rev   Ccp-Rev   Ccp-Rev   Ccp-Rev   Ccp-Rev   Ccp-Rev   Ccp-Rev   Ccp-Rev
(US/Central)
03/08 00:00      3.38      3.75        16     47.43      7.65      8.30      1434     12.57
03/08 01:00      3.48      3.74        20     46.49      7.62      8.30      1438     12.57
03/08 02:00      3.53      3.74        22     45.61      7.61      8.30      1433     12.57
03/08 03:00      3.58      3.74        25     44.78      7.60      8.30      1433     12.49
03/08 04:00      3.61      3.75        26     43.99      7.60      8.30      1433     12.41
03/08 05:00      3.62      3.74        26     43.27      7.62      8.30      1431     12.41
03/08 06:00      3.61      3.74        26     42.60      7.63      8.30      1436     12.41
03/08 07:00      3.60      3.75        25     41.95      7.66      8.20      1434     12.41
03/08 08:00      3.95      3.75        45     41.68      7.69      8.20      1431     12.41
03/08 09:00      3.95      3.73        45     42.28      7.72      8.30      1428     13.29
03/08 10:00      3.95      3.72        45     43.86      7.77      8.30      1425     13.37
03/08 11:00      3.86      3.74        40     45.90      7.81      8.30      1420     13.37
03/08 12:00      3.87      3.72        40     47.64      7.87      8.30      1423     13.37
03/08 13:00      3.96      3.70        46     49.98      7.93      8.30      1422     13.37
03/08 14:00      3.95      3.70        45     52.93      7.96      8.30      1417     13.37
03/08 15:00      3.95      3.67        45     54.81      8.01      8.30      1401     13.29
03/08 16:00      3.92      3.67        43     55.80      8.05      8.40      1375     13.21
03/08 17:00      3.86      3.70        40     55.98      8.09      8.40      1349     13.29
03/08 18:00      3.71      3.72        31     54.99      8.07      8.40      1314     12.97
03/08 19:00      3.41      3.71        17     54.28      8.00      8.40      1299     12.81
03/08 20:00      3.28      3.71        13     53.33      7.90      8.40      1291     12.73
03/08 21:00      3.21      3.71        10     52.29      7.79      8.30      1297     12.73
03/08 22:00      3.20      3.72        10     51.35      7.70      8.30      1313     12.65
03/08 23:00      3.23      3.72        11     50.45      7.62      8.30      1341     12.65